ENVR/VRY METAR and TAF weather

Enter ICAO airport designator
Station Type Date Time Source
ENVR METAR 2019/04/18 13:50 UTC NOAA

ENVR 181350Z 21014KT 9999 -SHRA FEW011 SCT020 BKN070 06/05 Q1030


Station Type Date Time Source
ENVR Decoded METAR 2019/04/18 13:50 UTC NOAA

Station name not available
Apr 18, 2019 - 09:50 AM EDT / 2019.04.18 1350 UTC
Wind: from the SSW (210 degrees) at 16 MPH (14 KT):0
Visibility: greater than 7 mile(s):0
Sky conditions: mostly cloudy
Weather: light rain showers
Temperature: 42 F (6 C)
Dew Point: 41 F (5 C)
Relative Humidity: 93%
Pressure (altimeter): 30.42 in. Hg (1030 hPa)
ob: ENVR 181350Z 21014KT 9999 -SHRA FEW011 SCT020 BKN070 06/05 Q1030
cycle: 14

Station Type Date Time Source
ENVR TAF UTC NOAA

Error!

Example: see airport list